createdAt,value
2023-02-25T00:00:43.869Z,11.05
2023-02-25T00:03:10.234Z,10.27
2023-02-25T00:05:36.638Z,11.05
2023-02-25T00:08:03.056Z,11.30
2023-02-25T00:10:29.505Z,10.63
2023-02-25T00:13:00.737Z,12.15
2023-02-25T00:15:32.150Z,11.73
2023-02-25T00:17:58.841Z,12.23
2023-02-25T00:20:25.269Z,11.48
2023-02-25T00:22:51.732Z,10.95
2023-02-25T00:25:18.126Z,11.18
2023-02-25T00:27:44.510Z,11.70
2023-02-25T00:30:10.915Z,11.52
2023-02-25T00:32:37.584Z,12.70
2023-02-25T00:35:03.939Z,11.43
2023-02-25T00:37:30.358Z,12.60
2023-02-25T00:39:56.769Z,12.02
2023-02-25T00:42:23.331Z,10.63
2023-02-25T00:44:49.744Z,11.82
2023-02-25T00:47:16.188Z,11.10
2023-02-25T00:49:42.939Z,11.18
2023-02-25T00:52:09.298Z,10.45
2023-02-25T00:54:35.686Z,12.43
2023-02-25T00:57:02.221Z,12.18
2023-02-25T00:59:28.575Z,11.85
2023-02-25T01:01:54.998Z,10.70
2023-02-25T01:04:21.416Z,10.98
2023-02-25T01:06:48.205Z,11.50
2023-02-25T01:09:14.742Z,10.18
2023-02-25T01:11:41.126Z,11.45
2023-02-25T01:14:07.511Z,11.57
2023-02-25T01:16:34.254Z,10.32
2023-02-25T01:19:00.610Z,10.20
2023-02-25T01:21:27.202Z,12.32
2023-02-25T01:23:53.571Z,11.02
2023-02-25T01:26:19.995Z,10.90
2023-02-25T01:28:46.567Z,11.98
2023-02-25T01:31:13.037Z,9.77
2023-02-25T01:33:39.424Z,11.05
2023-02-25T01:36:05.804Z,10.85
2023-02-25T01:38:32.178Z,9.57
2023-02-25T01:40:58.525Z,9.65
2023-02-25T01:43:24.918Z,11.20
2023-02-25T01:45:51.245Z,10.40
2023-02-25T01:48:17.567Z,11.70
2023-02-25T01:50:44.170Z,10.80
2023-02-25T01:53:10.759Z,11.57
2023-02-25T01:55:37.300Z,10.35
2023-02-25T01:58:03.796Z,10.07
2023-02-25T02:00:30.499Z,10.13
2023-02-25T02:02:56.845Z,9.63
2023-02-25T02:05:24.101Z,8.73
2023-02-25T02:07:50.598Z,9.30
2023-02-25T02:10:17.899Z,8.68
2023-02-25T02:12:44.429Z,9.05
2023-02-25T02:15:12.045Z,8.88
2023-02-25T02:17:38.353Z,9.13
2023-02-25T02:20:05.406Z,9.57
2023-02-25T02:22:31.780Z,8.80
2023-02-25T02:24:58.144Z,8.80
2023-02-25T02:27:24.697Z,9.15
2023-02-25T02:29:51.931Z,8.00
2023-02-25T02:32:18.546Z,8.15
2023-02-25T02:34:45.186Z,7.85
2023-02-25T02:37:11.508Z,8.48
2023-02-25T02:39:37.968Z,7.28
2023-02-25T02:42:04.360Z,7.97
2023-02-25T02:44:30.905Z,7.93
2023-02-25T02:46:57.234Z,10.18
2023-02-25T02:49:23.658Z,9.10
2023-02-25T02:51:50.187Z,8.38
2023-02-25T02:54:16.541Z,8.35
2023-02-25T02:56:42.944Z,7.80
2023-02-25T02:59:09.409Z,7.53
2023-02-25T03:01:35.881Z,7.22
2023-02-25T03:04:02.596Z,8.68
2023-02-25T03:06:28.966Z,8.82
2023-02-25T03:08:55.971Z,7.63
2023-02-25T03:11:22.535Z,6.50
2023-02-25T03:13:48.914Z,7.72
2023-02-25T03:16:15.815Z,5.97
2023-02-25T03:18:42.167Z,7.75
2023-02-25T03:21:08.600Z,8.38
2023-02-25T03:23:35.228Z,9.30
2023-02-25T03:26:01.611Z,6.97
2023-02-25T03:28:27.935Z,7.38
2023-02-25T03:30:55.343Z,8.02
2023-02-25T03:33:21.669Z,6.90
2023-02-25T03:35:48.326Z,8.27
2023-02-25T03:38:14.877Z,6.38
2023-02-25T03:40:41.201Z,6.05
2023-02-25T03:43:08.476Z,6.78
2023-02-25T03:45:34.979Z,7.63
2023-02-25T03:48:01.579Z,6.38
2023-02-25T03:50:28.436Z,6.45
2023-02-25T03:52:54.774Z,6.07
2023-02-25T03:55:21.199Z,5.53
2023-02-25T03:57:47.806Z,6.45
2023-02-25T04:00:14.188Z,6.25
2023-02-25T04:02:40.891Z,6.03
2023-02-25T04:05:07.256Z,7.05
2023-02-25T04:07:33.774Z,7.72
2023-02-25T04:10:00.321Z,5.90
2023-02-25T04:12:27.035Z,5.82
2023-02-25T04:14:53.468Z,7.93
2023-02-25T04:17:19.826Z,6.10
2023-02-25T04:19:46.453Z,5.90
2023-02-25T04:22:12.904Z,6.32
2023-02-25T04:24:39.250Z,5.40
2023-02-25T04:27:05.643Z,6.40
2023-02-25T04:29:32.067Z,7.43
2023-02-25T04:31:58.623Z,6.47
2023-02-25T04:34:25.299Z,5.88
2023-02-25T04:36:51.651Z,5.25
2023-02-25T04:39:18.093Z,5.85
2023-02-25T04:41:44.558Z,5.50
2023-02-25T04:44:11.181Z,5.00
2023-02-25T04:46:37.648Z,4.88
2023-02-25T04:49:04.144Z,4.78
2023-02-25T04:51:30.513Z,5.55
2023-02-25T04:53:56.944Z,5.30
2023-02-25T04:56:23.752Z,5.05
2023-02-25T04:58:50.214Z,5.60
2023-02-25T05:01:16.832Z,5.90
2023-02-25T05:03:43.450Z,5.18
2023-02-25T05:06:09.943Z,4.93
2023-02-25T05:08:36.402Z,5.70
2023-02-25T05:11:02.846Z,4.45
2023-02-25T05:13:29.487Z,4.80
2023-02-25T05:15:56.215Z,4.32
2023-02-25T05:18:22.945Z,4.40
2023-02-25T05:20:49.323Z,4.35
2023-02-25T05:23:15.841Z,4.68
2023-02-25T05:25:42.244Z,5.10
2023-02-25T05:28:08.626Z,4.85
2023-02-25T05:30:34.990Z,4.05
2023-02-25T05:33:01.385Z,4.30
2023-02-25T05:35:28.061Z,4.10
2023-02-25T05:37:54.510Z,4.22
2023-02-25T05:40:22.681Z,3.85
2023-02-25T05:42:49.114Z,3.78
2023-02-25T05:45:15.665Z,5.30
2023-02-25T05:47:42.103Z,4.63
2023-02-25T05:50:08.628Z,4.00
2023-02-25T05:52:35.078Z,4.07
2023-02-25T05:55:01.399Z,4.47
2023-02-25T05:57:28.080Z,3.85
2023-02-25T05:59:54.657Z,4.05
2023-02-25T06:02:20.989Z,3.17
2023-02-25T06:04:47.327Z,3.40
2023-02-25T06:07:13.655Z,4.15
2023-02-25T06:09:40.164Z,3.45
2023-02-25T06:12:06.512Z,3.35
2023-02-25T06:14:33.188Z,3.92
2023-02-25T06:16:59.475Z,3.83
2023-02-25T06:19:26.188Z,3.88
2023-02-25T06:21:52.756Z,3.15
2023-02-25T06:24:19.538Z,3.50
2023-02-25T06:26:45.878Z,4.00
2023-02-25T06:29:12.266Z,3.08
2023-02-25T06:31:39.379Z,4.10
2023-02-25T06:34:05.785Z,3.78
2023-02-25T06:36:32.344Z,3.25
2023-02-25T06:38:58.669Z,3.70
2023-02-25T06:41:25.063Z,3.10
2023-02-25T06:43:51.485Z,3.80
2023-02-25T06:46:17.875Z,3.38
2023-02-25T06:48:44.338Z,2.85
2023-02-25T06:51:10.698Z,4.68
2023-02-25T06:53:37.068Z,3.83
2023-02-25T06:56:03.366Z,3.20
2023-02-25T06:58:30.002Z,3.30
2023-02-25T07:00:56.319Z,3.05
2023-02-25T07:03:22.970Z,3.15
2023-02-25T07:05:49.357Z,2.92
2023-02-25T07:08:15.746Z,3.55
2023-02-25T07:10:42.257Z,3.13
2023-02-25T07:13:08.746Z,2.70
2023-02-25T07:15:35.306Z,4.03
2023-02-25T07:18:01.842Z,3.20
2023-02-25T07:20:28.383Z,2.63
2023-02-25T07:22:54.992Z,3.17
2023-02-25T07:25:21.512Z,2.65
2023-02-25T07:27:48.001Z,3.47
2023-02-25T07:30:15.047Z,2.83
2023-02-25T07:32:41.555Z,2.80
2023-02-25T07:35:08.037Z,3.03
2023-02-25T07:37:34.384Z,2.85
2023-02-25T07:40:00.774Z,2.90
2023-02-25T07:42:27.279Z,2.70
2023-02-25T07:44:54.014Z,3.33
2023-02-25T07:47:20.398Z,3.15
2023-02-25T07:49:46.982Z,2.50
2023-02-25T07:52:13.333Z,3.10
2023-02-25T07:54:40.083Z,2.78
2023-02-25T07:57:06.839Z,2.40
2023-02-25T07:59:33.158Z,2.92
2023-02-25T08:01:59.993Z,1.85
2023-02-25T08:04:26.428Z,2.38
2023-02-25T08:06:52.872Z,2.30
2023-02-25T08:09:19.216Z,2.78
2023-02-25T08:11:45.997Z,2.50
2023-02-25T08:14:12.372Z,2.63
2023-02-25T08:16:38.806Z,2.08
2023-02-25T08:19:05.615Z,2.60
2023-02-25T08:21:32.078Z,2.08
2023-02-25T08:23:58.746Z,2.78
2023-02-25T08:26:25.069Z,2.28
2023-02-25T08:28:51.402Z,1.98
2023-02-25T08:31:17.779Z,2.58
2023-02-25T08:33:44.215Z,2.17
2023-02-25T08:36:10.696Z,2.10
2023-02-25T08:38:37.064Z,2.53
2023-02-25T08:41:03.709Z,2.42
2023-02-25T08:43:30.064Z,2.53
2023-02-25T08:45:56.423Z,2.13
2023-02-25T08:48:23.657Z,1.52
2023-02-25T08:50:50.017Z,2.63
2023-02-25T08:53:16.577Z,1.60
2023-02-25T08:55:43.011Z,2.50
2023-02-25T08:58:09.396Z,2.00
2023-02-25T09:00:35.760Z,1.60
2023-02-25T09:03:02.148Z,2.13
2023-02-25T09:05:28.591Z,2.00
2023-02-25T09:07:54.977Z,2.03
2023-02-25T09:10:21.606Z,2.17
2023-02-25T09:12:47.962Z,1.63
2023-02-25T09:15:14.261Z,2.20
2023-02-25T09:17:40.992Z,1.60
2023-02-25T09:20:07.330Z,1.98
2023-02-25T09:22:33.675Z,1.55
2023-02-25T09:25:00.160Z,1.98
2023-02-25T09:27:26.496Z,2.05
2023-02-25T09:29:52.915Z,1.52
2023-02-25T09:32:19.484Z,1.73
2023-02-25T09:34:46.012Z,2.47
2023-02-25T09:37:12.394Z,1.67
2023-02-25T09:39:39.302Z,1.63
2023-02-25T09:42:05.627Z,1.60
2023-02-25T09:44:31.971Z,1.50
2023-02-25T09:46:58.356Z,2.40
2023-02-25T09:49:24.869Z,1.75
2023-02-25T09:51:51.165Z,1.30
2023-02-25T09:54:17.500Z,1.90
2023-02-25T09:56:43.886Z,1.45
2023-02-25T09:59:10.242Z,1.80
2023-02-25T10:01:36.912Z,1.52
2023-02-25T10:04:03.258Z,1.48
2023-02-25T10:06:29.610Z,1.88
2023-02-25T10:08:56.183Z,2.08
2023-02-25T10:11:23.082Z,3.45
2023-02-25T10:13:49.653Z,2.08
2023-02-25T10:16:16.111Z,2.03
2023-02-25T10:18:42.462Z,2.10
2023-02-25T10:21:09.265Z,1.98
2023-02-25T10:23:35.762Z,2.05
2023-02-25T10:26:02.140Z,4.03
2023-02-25T10:28:28.976Z,3.65
2023-02-25T10:30:55.402Z,3.65
2023-02-25T10:33:21.850Z,2.70
2023-02-25T10:35:48.230Z,2.35
2023-02-25T10:38:14.903Z,1.42
2023-02-25T10:40:41.357Z,1.60
2023-02-25T10:43:07.653Z,1.75
2023-02-25T10:45:34.252Z,2.15
2023-02-25T10:48:00.930Z,1.88
2023-02-25T10:50:42.776Z,3.13
2023-02-25T10:53:11.625Z,3.53
2023-02-25T10:55:38.198Z,2.28
2023-02-25T10:58:05.259Z,2.15
2023-02-25T11:00:31.665Z,3.03
2023-02-25T11:02:58.598Z,1.75
2023-02-25T11:05:25.014Z,3.05
2023-02-25T11:07:51.583Z,3.72
2023-02-25T11:10:18.127Z,3.38
2023-02-25T11:12:44.965Z,2.17
2023-02-25T11:15:11.341Z,2.45
2023-02-25T11:17:37.671Z,2.63
2023-02-25T11:20:04.134Z,2.35
2023-02-25T11:22:30.694Z,2.90
2023-02-25T11:24:57.232Z,2.85
2023-02-25T11:27:23.670Z,3.42
2023-02-25T11:29:50.147Z,2.55
2023-02-25T11:32:16.586Z,3.00
2023-02-25T11:34:43.337Z,3.40
2023-02-25T11:37:09.768Z,3.60
2023-02-25T11:39:36.198Z,4.57
2023-02-25T11:42:03.005Z,4.13
2023-02-25T11:44:29.904Z,4.05
2023-02-25T11:46:56.204Z,4.15
2023-02-25T11:49:22.749Z,4.75
2023-02-25T11:51:49.466Z,5.38
2023-02-25T11:54:15.911Z,4.47
2023-02-25T11:56:42.350Z,5.07
2023-02-25T11:59:08.664Z,5.28
2023-02-25T12:01:35.211Z,5.43
2023-02-25T12:04:02.135Z,5.65
2023-02-25T12:06:28.501Z,5.95
2023-02-25T12:08:54.788Z,4.90
2023-02-25T12:11:23.146Z,5.63
2023-02-25T12:13:50.343Z,5.22
2023-02-25T12:16:16.747Z,5.47
2023-02-25T12:18:43.202Z,5.50
2023-02-25T12:21:09.731Z,4.88
2023-02-25T12:23:36.091Z,5.25
2023-02-25T12:26:02.536Z,5.13
2023-02-25T12:28:29.300Z,5.00
2023-02-25T12:30:55.752Z,5.82
2023-02-25T12:33:22.135Z,5.07
2023-02-25T12:35:48.501Z,5.57
2023-02-25T12:38:14.974Z,5.45
2023-02-25T12:40:41.488Z,5.38
2023-02-25T12:43:08.053Z,5.72
2023-02-25T12:45:34.942Z,5.85
2023-02-25T12:48:01.532Z,5.72
2023-02-25T12:50:27.885Z,4.53
2023-02-25T12:52:54.988Z,5.28
2023-02-25T12:55:21.304Z,6.20
2023-02-25T12:57:47.664Z,4.95
2023-02-25T13:00:14.051Z,4.18
2023-02-25T13:02:40.679Z,5.10
2023-02-25T13:05:07.775Z,5.38
2023-02-25T13:07:34.065Z,4.82
2023-02-25T13:10:00.577Z,4.95
2023-02-25T13:12:27.292Z,4.80
2023-02-25T13:14:53.697Z,5.25
2023-02-25T13:17:20.112Z,4.47
2023-02-25T13:19:46.578Z,3.92
2023-02-25T13:22:12.970Z,3.97
2023-02-25T13:24:39.387Z,4.45
2023-02-25T13:27:05.946Z,4.68
2023-02-25T13:29:32.345Z,4.22
2023-02-25T13:31:59.229Z,4.45
2023-02-25T13:34:25.540Z,4.13
2023-02-25T13:36:52.004Z,4.80
2023-02-25T13:39:18.698Z,4.03
2023-02-25T13:41:45.153Z,4.32
2023-02-25T13:44:11.739Z,3.90
2023-02-25T13:46:38.037Z,3.20
2023-02-25T13:49:04.648Z,5.03
2023-02-25T13:51:31.629Z,3.80
2023-02-25T13:53:57.960Z,4.03
2023-02-25T13:56:24.325Z,3.58
2023-02-25T13:58:51.437Z,3.47
2023-02-25T14:01:18.838Z,3.88
2023-02-25T14:03:45.228Z,4.10
2023-02-25T14:06:11.585Z,3.95
2023-02-25T14:08:37.905Z,3.70
2023-02-25T14:11:04.556Z,3.95
2023-02-25T14:13:31.426Z,3.50
2023-02-25T14:15:57.957Z,3.53
2023-02-25T14:18:24.936Z,3.92
2023-02-25T14:20:51.522Z,3.53
2023-02-25T14:23:18.309Z,3.60
2023-02-25T14:25:44.604Z,3.10
2023-02-25T14:28:13.501Z,3.53
2023-02-25T14:30:40.070Z,3.50
2023-02-25T14:33:07.178Z,3.15
2023-02-25T14:35:33.600Z,3.10
2023-02-25T14:38:00.208Z,4.05
2023-02-25T14:40:26.664Z,3.05
2023-02-25T14:42:53.621Z,3.05
2023-02-25T14:45:19.986Z,3.10
2023-02-25T14:47:46.413Z,2.97
2023-02-25T14:50:12.946Z,3.42
2023-02-25T14:52:39.371Z,3.83
2023-02-25T14:55:05.744Z,3.95
2023-02-25T14:57:32.444Z,94.07
2023-02-25T14:59:59.206Z,54.00
2023-02-25T15:02:25.556Z,36.88
2023-02-25T15:04:51.902Z,31.00
2023-02-25T15:07:18.806Z,30.35
2023-02-25T15:09:45.142Z,72.38
2023-02-25T15:12:11.850Z,139.60
2023-02-25T15:14:38.129Z,153.43
2023-02-25T15:17:04.566Z,155.93
2023-02-25T15:19:31.410Z,166.40
2023-02-25T15:21:57.828Z,178.07
2023-02-25T15:24:24.305Z,157.00
2023-02-25T15:26:50.617Z,141.73
2023-02-25T15:29:16.963Z,120.88
2023-02-25T15:31:43.420Z,111.75
2023-02-25T15:34:09.851Z,94.70
2023-02-25T15:36:36.300Z,86.47
2023-02-25T15:39:03.113Z,75.95
2023-02-25T15:41:29.984Z,69.03
2023-02-25T15:43:56.492Z,64.22
2023-02-25T15:46:23.331Z,60.22
2023-02-25T15:48:49.923Z,54.42
2023-02-25T15:51:16.390Z,49.80
2023-02-25T15:53:43.166Z,46.88
2023-02-25T15:56:09.529Z,40.65
2023-02-25T15:58:35.880Z,33.58
2023-02-25T16:01:02.278Z,26.65
2023-02-25T16:03:29.134Z,24.73
2023-02-25T16:05:55.507Z,25.58
2023-02-25T16:08:21.882Z,22.90
2023-02-25T16:10:48.313Z,17.98
2023-02-25T16:13:14.700Z,19.30
2023-02-25T16:15:41.026Z,25.58
2023-02-25T16:18:07.369Z,23.42
2023-02-25T16:20:33.866Z,32.10
2023-02-25T16:23:00.274Z,34.55
2023-02-25T16:25:26.650Z,37.45
2023-02-25T16:27:53.517Z,35.03
2023-02-25T16:30:20.461Z,31.35
2023-02-25T16:32:46.822Z,31.83
2023-02-25T16:35:13.189Z,30.52
2023-02-25T16:37:39.675Z,25.15
2023-02-25T16:40:06.093Z,164.13
2023-02-25T16:42:32.850Z,270.30
2023-02-25T16:44:59.576Z,218.00
2023-02-25T16:47:26.523Z,187.75
2023-02-25T16:49:53.452Z,163.50
2023-02-25T16:52:20.031Z,148.55
2023-02-25T16:54:46.429Z,133.30
2023-02-25T16:57:12.710Z,119.70
2023-02-25T16:59:39.258Z,103.60
2023-02-25T17:02:05.574Z,98.68
2023-02-25T17:04:33.285Z,69.32
2023-02-25T17:06:59.605Z,34.22
2023-02-25T17:09:25.990Z,272.73
2023-02-25T17:11:53.041Z,258.25
2023-02-25T17:14:19.334Z,223.57
2023-02-25T17:16:45.653Z,211.80
2023-02-25T17:19:12.717Z,184.88
2023-02-25T17:21:39.568Z,172.55
2023-02-25T17:24:06.092Z,160.68
2023-02-25T17:26:32.943Z,149.05
2023-02-25T17:28:59.756Z,144.32
2023-02-25T17:31:26.300Z,133.30
2023-02-25T17:33:53.243Z,123.22
2023-02-25T17:36:19.563Z,119.35
2023-02-25T17:38:45.941Z,111.60
2023-02-25T17:41:12.313Z,107.72
2023-02-25T17:43:38.769Z,99.05
2023-02-25T17:46:05.359Z,292.95
2023-02-25T17:48:31.633Z,331.90
2023-02-25T17:50:57.986Z,284.17
2023-02-25T17:53:24.361Z,261.17
2023-02-25T17:55:50.662Z,245.05
2023-02-25T17:58:17.542Z,214.50
2023-02-25T18:00:43.889Z,187.60
2023-02-25T18:03:10.337Z,167.10
2023-02-25T18:05:37.481Z,147.65
2023-02-25T18:08:03.955Z,139.40
2023-02-25T18:10:30.315Z,294.02
2023-02-25T18:12:56.724Z,338.85
2023-02-25T18:15:23.174Z,295.73
2023-02-25T18:17:49.614Z,271.52
2023-02-25T18:20:16.002Z,248.82
2023-02-25T18:22:42.834Z,212.90
2023-02-25T18:25:09.774Z,221.23
2023-02-25T18:27:36.080Z,304.13
2023-02-25T18:30:02.513Z,405.08
2023-02-25T18:32:28.924Z,347.50
2023-02-25T18:34:55.586Z,322.58
2023-02-25T18:37:22.186Z,298.60
2023-02-25T18:39:48.567Z,279.83
2023-02-25T18:42:15.342Z,267.70
2023-02-25T18:44:42.138Z,251.80
2023-02-25T18:47:08.690Z,237.77
2023-02-25T18:49:35.503Z,359.25
2023-02-25T18:52:02.426Z,410.30
2023-02-25T18:54:29.129Z,345.38
2023-02-25T18:56:55.530Z,329.42
2023-02-25T18:59:22.310Z,309.13
2023-02-25T19:01:49.378Z,291.75
2023-02-25T19:04:15.987Z,277.58
2023-02-25T19:06:42.420Z,260.05
2023-02-25T19:09:09.604Z,246.80
2023-02-25T19:11:36.776Z,331.27
2023-02-25T19:14:03.261Z,316.10
2023-02-25T19:16:29.721Z,293.83
2023-02-25T19:18:56.166Z,160.20
2023-02-25T19:21:22.520Z,313.30
2023-02-25T19:23:51.239Z,276.30
2023-02-25T19:26:18.139Z,262.80
2023-02-25T19:28:44.839Z,245.18
2023-02-25T19:31:11.292Z,230.27
2023-02-25T19:33:38.391Z,212.80
2023-02-25T19:36:04.824Z,202.02
2023-02-25T19:38:31.666Z,195.57
2023-02-25T19:40:58.038Z,181.32
2023-02-25T19:43:24.949Z,171.13
2023-02-25T19:45:51.550Z,165.55
2023-02-25T19:48:17.942Z,158.60
2023-02-25T19:50:44.267Z,149.80
2023-02-25T19:53:10.987Z,146.32
2023-02-25T19:55:37.380Z,136.20
2023-02-25T19:58:03.870Z,129.32
2023-02-25T20:00:30.246Z,125.45
2023-02-25T20:02:56.624Z,116.20
2023-02-25T20:05:23.014Z,111.57
2023-02-25T20:07:49.452Z,107.97
2023-02-25T20:10:15.831Z,102.72
2023-02-25T20:12:42.259Z,99.78
2023-02-25T20:15:08.580Z,94.47
2023-02-25T20:17:35.326Z,90.13
2023-02-25T20:20:02.086Z,86.68
2023-02-25T20:22:28.394Z,83.40
2023-02-25T20:24:55.002Z,78.90
2023-02-25T20:27:21.700Z,76.35
2023-02-25T20:29:48.138Z,73.72
2023-02-25T20:32:14.889Z,68.45
2023-02-25T20:34:41.385Z,66.53
2023-02-25T20:37:08.084Z,61.13
2023-02-25T20:39:34.526Z,59.97
2023-02-25T20:42:01.196Z,58.50
2023-02-25T20:44:27.652Z,55.15
2023-02-25T20:46:54.028Z,55.17
2023-02-25T20:49:20.406Z,51.67
2023-02-25T20:51:47.274Z,47.58
2023-02-25T20:54:13.670Z,46.90
2023-02-25T20:56:40.247Z,42.42
2023-02-25T20:59:07.489Z,41.90
2023-02-25T21:01:33.868Z,41.10
2023-02-25T21:04:00.402Z,39.13
2023-02-25T21:06:26.991Z,37.47
2023-02-25T21:08:53.675Z,34.53
2023-02-25T21:11:20.396Z,32.70
2023-02-25T21:13:47.134Z,34.85
2023-02-25T21:16:13.520Z,32.20
2023-02-25T21:18:39.887Z,30.50
2023-02-25T21:21:06.360Z,29.50
2023-02-25T21:23:33.367Z,28.10
2023-02-25T21:25:59.740Z,25.75
2023-02-25T21:28:26.181Z,25.65
2023-02-25T21:30:52.580Z,23.52
2023-02-25T21:33:19.785Z,23.10
2023-02-25T21:35:46.116Z,22.27
2023-02-25T21:38:13.077Z,22.42
2023-02-25T21:40:39.920Z,19.77
2023-02-25T21:43:06.407Z,19.25
2023-02-25T21:45:32.947Z,18.52
2023-02-25T21:47:59.887Z,19.42
2023-02-25T21:50:44.419Z,17.13
2023-02-25T21:53:10.948Z,16.55
2023-02-25T21:55:37.620Z,16.45
2023-02-25T21:58:04.635Z,15.18
2023-02-25T22:00:30.953Z,15.07
2023-02-25T22:02:57.388Z,15.02
2023-02-25T22:05:24.048Z,14.30
2023-02-25T22:07:50.830Z,13.10
2023-02-25T22:10:17.126Z,13.18
2023-02-25T22:12:43.480Z,11.80
2023-02-25T22:15:10.164Z,11.40
2023-02-25T22:17:37.236Z,11.65
2023-02-25T22:20:03.642Z,11.10
2023-02-25T22:22:30.067Z,10.15
2023-02-25T22:24:56.466Z,10.07
2023-02-25T22:27:23.154Z,9.50
2023-02-25T22:29:50.427Z,9.70
2023-02-25T22:32:17.120Z,9.27
2023-02-25T22:34:43.713Z,9.20
2023-02-25T22:37:10.070Z,8.30
2023-02-25T22:39:36.584Z,8.10
2023-02-25T22:42:03.022Z,8.52
2023-02-25T22:44:29.825Z,7.45
2023-02-25T22:46:56.909Z,7.40
2023-02-25T22:49:23.990Z,6.78
2023-02-25T22:51:50.309Z,7.30
2023-02-25T22:54:17.480Z,7.90
2023-02-25T22:56:43.874Z,7.15
2023-02-25T22:59:10.291Z,7.05
2023-02-25T23:01:37.198Z,6.25
2023-02-25T23:04:03.586Z,5.78
2023-02-25T23:06:46.037Z,5.97
2023-02-25T23:09:12.847Z,5.95
2023-02-25T23:11:39.414Z,5.47
2023-02-25T23:14:05.830Z,5.75
2023-02-25T23:16:32.239Z,5.53
2023-02-25T23:18:58.703Z,5.60
2023-02-25T23:21:25.072Z,5.97
2023-02-25T23:23:51.528Z,5.38
2023-02-25T23:26:18.054Z,5.40
2023-02-25T23:28:44.484Z,4.80
2023-02-25T23:31:10.843Z,4.90
2023-02-25T23:33:38.112Z,5.32
2023-02-25T23:36:04.578Z,5.07
2023-02-25T23:38:31.431Z,5.30
2023-02-25T23:40:57.946Z,5.10
2023-02-25T23:43:24.599Z,4.47
2023-02-25T23:45:51.296Z,4.43
2023-02-25T23:48:17.687Z,4.40
2023-02-25T23:50:44.192Z,5.22
2023-02-25T23:53:11.471Z,4.55
2023-02-25T23:55:37.934Z,3.95
2023-02-25T23:58:04.541Z,3.75
